sensor_id;sensor_type;location;lat;lon;timestamp;temperature;humidity
65836;SHT30;52595;51.608;7.216;2023-02-08T00:01:23;-3.11;97.97
65836;SHT30;52595;51.608;7.216;2023-02-08T00:03:49;-3.12;98.04
65836;SHT30;52595;51.608;7.216;2023-02-08T00:06:15;-3.12;98.53
65836;SHT30;52595;51.608;7.216;2023-02-08T00:08:40;-3.15;98.13
65836;SHT30;52595;51.608;7.216;2023-02-08T00:11:06;-3.18;98.20
65836;SHT30;52595;51.608;7.216;2023-02-08T00:13:34;-3.25;98.01
65836;SHT30;52595;51.608;7.216;2023-02-08T00:16:00;-3.30;98.12
65836;SHT30;52595;51.608;7.216;2023-02-08T00:18:25;-3.28;98.47
65836;SHT30;52595;51.608;7.216;2023-02-08T00:20:51;-3.28;98.55
65836;SHT30;52595;51.608;7.216;2023-02-08T00:23:17;-3.25;98.49
65836;SHT30;52595;51.608;7.216;2023-02-08T00:25:42;-3.30;98.57
65836;SHT30;52595;51.608;7.216;2023-02-08T00:28:13;-3.32;98.62
65836;SHT30;52595;51.608;7.216;2023-02-08T00:30:38;-3.32;98.44
65836;SHT30;52595;51.608;7.216;2023-02-08T00:33:04;-3.37;98.44
65836;SHT30;52595;51.608;7.216;2023-02-08T00:35:30;-3.35;98.97
65836;SHT30;52595;51.608;7.216;2023-02-08T00:37:55;-3.45;98.50
65836;SHT30;52595;51.608;7.216;2023-02-08T00:40:21;-3.51;98.59
65836;SHT30;52595;51.608;7.216;2023-02-08T00:42:47;-3.41;99.11
65836;SHT30;52595;51.608;7.216;2023-02-08T00:45:12;-3.39;99.01
65836;SHT30;52595;51.608;7.216;2023-02-08T00:47:37;-3.42;99.05
65836;SHT30;52595;51.608;7.216;2023-02-08T00:50:03;-3.45;98.97
65836;SHT30;52595;51.608;7.216;2023-02-08T00:52:29;-3.47;99.09
65836;SHT30;52595;51.608;7.216;2023-02-08T00:54:55;-3.44;99.55
65836;SHT30;52595;51.608;7.216;2023-02-08T00:57:20;-3.47;99.09
65836;SHT30;52595;51.608;7.216;2023-02-08T00:59:46;-3.47;99.16
65836;SHT30;52595;51.608;7.216;2023-02-08T01:02:11;-3.41;99.69
65836;SHT30;52595;51.608;7.216;2023-02-08T01:04:37;-3.32;99.78
65836;SHT30;52595;51.608;7.216;2023-02-08T01:07:04;-3.31;99.92
65836;SHT30;52595;51.608;7.216;2023-02-08T01:09:29;-3.31;99.60
65836;SHT30;52595;51.608;7.216;2023-02-08T01:11:55;-3.32;99.54
65836;SHT30;52595;51.608;7.216;2023-02-08T01:14:20;-3.37;99.48
65836;SHT30;52595;51.608;7.216;2023-02-08T01:16:46;-3.41;99.44
65836;SHT30;52595;51.608;7.216;2023-02-08T01:19:11;-3.38;99.86
65836;SHT30;52595;51.608;7.216;2023-02-08T01:21:40;-3.44;99.43
65836;SHT30;52595;51.608;7.216;2023-02-08T01:24:06;-3.49;99.47
65836;SHT30;52595;51.608;7.216;2023-02-08T01:26:32;-3.52;99.32
65836;SHT30;52595;51.608;7.216;2023-02-08T01:28:58;-3.52;99.81
65836;SHT30;52595;51.608;7.216;2023-02-08T01:31:28;-3.44;99.99
65836;SHT30;52595;51.608;7.216;2023-02-08T01:33:54;-3.39;99.99
65836;SHT30;52595;51.608;7.216;2023-02-08T01:36:20;-3.27;99.99
65836;SHT30;52595;51.608;7.216;2023-02-08T01:38:46;-3.12;99.99
65836;SHT30;52595;51.608;7.216;2023-02-08T01:41:19;-3.08;99.99
65836;SHT30;52595;51.608;7.216;2023-02-08T01:46:30;-3.25;99.78
65836;SHT30;52595;51.608;7.216;2023-02-08T01:49:00;-3.24;99.72
65836;SHT30;52595;51.608;7.216;2023-02-08T01:51:31;-3.12;99.99
65836;SHT30;52595;51.608;7.216;2023-02-08T01:53:59;-3.12;99.90
65836;SHT30;52595;51.608;7.216;2023-02-08T01:56:37;-3.15;99.99
65836;SHT30;52595;51.608;7.216;2023-02-08T01:59:07;-2.94;99.99
65836;SHT30;52595;51.608;7.216;2023-02-08T02:01:35;-2.96;99.99
65836;SHT30;52595;51.608;7.216;2023-02-08T02:04:04;-2.83;99.99
65836;SHT30;52595;51.608;7.216;2023-02-08T02:06:37;-2.90;99.99
65836;SHT30;52595;51.608;7.216;2023-02-08T02:12:20;-2.91;99.76
65836;SHT30;52595;51.608;7.216;2023-02-08T02:14:46;-3.03;99.48
65836;SHT30;52595;51.608;7.216;2023-02-08T02:17:12;-3.19;99.22
65836;SHT30;52595;51.608;7.216;2023-02-08T02:43:51;-3.59;99.99
65836;SHT30;52595;51.608;7.216;2023-02-08T02:46:37;-3.58;99.99
65836;SHT30;52595;51.608;7.216;2023-02-08T02:49:24;-3.61;99.99
65836;SHT30;52595;51.608;7.216;2023-02-08T02:52:01;-3.65;99.99
65836;SHT30;52595;51.608;7.216;2023-02-08T02:54:40;-3.68;99.99
65836;SHT30;52595;51.608;7.216;2023-02-08T02:57:11;-3.65;99.99
65836;SHT30;52595;51.608;7.216;2023-02-08T02:59:39;-3.63;99.99
65836;SHT30;52595;51.608;7.216;2023-02-08T03:02:06;-3.65;99.99
65836;SHT30;52595;51.608;7.216;2023-02-08T03:07:15;-3.78;99.95
65836;SHT30;52595;51.608;7.216;2023-02-08T03:20:24;-3.49;99.99
65836;SHT30;52595;51.608;7.216;2023-02-08T03:23:14;-3.52;99.99
65836;SHT30;52595;51.608;7.216;2023-02-08T03:25:49;-3.58;99.99
65836;SHT30;52595;51.608;7.216;2023-02-08T03:28:26;-3.55;99.99
65836;SHT30;52595;51.608;7.216;2023-02-08T03:31:29;-3.44;99.99
65836;SHT30;52595;51.608;7.216;2023-02-08T03:34:04;-3.58;99.62
65836;SHT30;52595;51.608;7.216;2023-02-08T03:36:37;-3.59;99.65
65836;SHT30;52595;51.608;7.216;2023-02-08T03:39:07;-3.65;99.54
65836;SHT30;52595;51.608;7.216;2023-02-08T03:41:38;-3.69;99.46
65836;SHT30;52595;51.608;7.216;2023-02-08T03:44:28;-3.76;99.44
65836;SHT30;52595;51.608;7.216;2023-02-08T03:47:03;-3.79;99.49
65836;SHT30;52595;51.608;7.216;2023-02-08T03:49:33;-3.73;99.71
65836;SHT30;52595;51.608;7.216;2023-02-08T03:52:01;-3.79;99.61
65836;SHT30;52595;51.608;7.216;2023-02-08T03:54:31;-3.78;99.47
65836;SHT30;52595;51.608;7.216;2023-02-08T03:57:15;-3.75;99.80
65836;SHT30;52595;51.608;7.216;2023-02-08T03:59:44;-3.76;99.42
65836;SHT30;52595;51.608;7.216;2023-02-08T04:02:16;-3.83;99.45
65836;SHT30;52595;51.608;7.216;2023-02-08T04:04:45;-3.90;99.36
65836;SHT30;52595;51.608;7.216;2023-02-08T04:07:11;-3.89;99.58
65836;SHT30;52595;51.608;7.216;2023-02-08T04:09:37;-3.97;99.62
65836;SHT30;52595;51.608;7.216;2023-02-08T04:12:02;-3.89;99.96
65836;SHT30;52595;51.608;7.216;2023-02-08T04:14:28;-3.81;99.86
65836;SHT30;52595;51.608;7.216;2023-02-08T04:16:53;-3.82;99.51
65836;SHT30;52595;51.608;7.216;2023-02-08T04:19:19;-3.76;99.71
65836;SHT30;52595;51.608;7.216;2023-02-08T04:21:44;-3.75;99.53
65836;SHT30;52595;51.608;7.216;2023-02-08T04:24:09;-3.82;99.48
65836;SHT30;52595;51.608;7.216;2023-02-08T04:26:35;-3.82;99.43
65836;SHT30;52595;51.608;7.216;2023-02-08T04:29:00;-3.87;99.38
65836;SHT30;52595;51.608;7.216;2023-02-08T04:31:26;-3.99;99.00
65836;SHT30;52595;51.608;7.216;2023-02-08T04:33:51;-3.99;99.22
65836;SHT30;52595;51.608;7.216;2023-02-08T04:36:17;-4.07;98.98
65836;SHT30;52595;51.608;7.216;2023-02-08T04:38:42;-4.09;99.18
65836;SHT30;52595;51.608;7.216;2023-02-08T04:41:08;-4.09;99.16
65836;SHT30;52595;51.608;7.216;2023-02-08T04:43:33;-4.13;98.98
65836;SHT30;52595;51.608;7.216;2023-02-08T04:45:59;-4.21;98.94
65836;SHT30;52595;51.608;7.216;2023-02-08T04:48:25;-4.11;99.93
65836;SHT30;52595;51.608;7.216;2023-02-08T04:50:54;-4.16;99.55
65836;SHT30;52595;51.608;7.216;2023-02-08T04:53:19;-4.24;99.12
65836;SHT30;52595;51.608;7.216;2023-02-08T04:55:46;-4.23;99.56
65836;SHT30;52595;51.608;7.216;2023-02-08T04:58:11;-4.27;99.09
65836;SHT30;52595;51.608;7.216;2023-02-08T05:00:36;-4.20;99.76
65836;SHT30;52595;51.608;7.216;2023-02-08T05:03:02;-4.14;99.82
65836;SHT30;52595;51.608;7.216;2023-02-08T05:05:28;-4.13;99.42
65836;SHT30;52595;51.608;7.216;2023-02-08T05:07:54;-4.06;99.78
65836;SHT30;52595;51.608;7.216;2023-02-08T05:10:20;-3.97;99.68
65836;SHT30;52595;51.608;7.216;2023-02-08T05:12:45;-3.97;99.34
65836;SHT30;52595;51.608;7.216;2023-02-08T05:15:11;-4.02;99.10
65836;SHT30;52595;51.608;7.216;2023-02-08T05:17:36;-4.11;98.97
65836;SHT30;52595;51.608;7.216;2023-02-08T05:20:03;-4.14;99.31
65836;SHT30;52595;51.608;7.216;2023-02-08T05:22:29;-4.16;99.47
65836;SHT30;52595;51.608;7.216;2023-02-08T05:24:54;-4.17;99.71
65836;SHT30;52595;51.608;7.216;2023-02-08T05:27:20;-4.17;99.46
65836;SHT30;52595;51.608;7.216;2023-02-08T05:29:45;-4.23;98.82
65836;SHT30;52595;51.608;7.216;2023-02-08T05:32:10;-4.26;99.12
65836;SHT30;52595;51.608;7.216;2023-02-08T05:34:36;-4.26;99.09
65836;SHT30;52595;51.608;7.216;2023-02-08T05:37:02;-4.31;99.20
65836;SHT30;52595;51.608;7.216;2023-02-08T05:39:27;-4.38;98.73
65836;SHT30;52595;51.608;7.216;2023-02-08T05:41:53;-4.41;98.89
65836;SHT30;52595;51.608;7.216;2023-02-08T05:44:18;-4.43;99.28
65836;SHT30;52595;51.608;7.216;2023-02-08T05:46:43;-4.38;99.16
65836;SHT30;52595;51.608;7.216;2023-02-08T05:49:09;-4.30;99.84
65836;SHT30;52595;51.608;7.216;2023-02-08T05:51:34;-4.30;99.45
65836;SHT30;52595;51.608;7.216;2023-02-08T05:53:59;-4.38;99.27
65836;SHT30;52595;51.608;7.216;2023-02-08T05:56:25;-4.47;98.99
65836;SHT30;52595;51.608;7.216;2023-02-08T05:58:51;-4.50;99.24
65836;SHT30;52595;51.608;7.216;2023-02-08T06:01:17;-4.50;99.11
65836;SHT30;52595;51.608;7.216;2023-02-08T06:03:42;-4.56;99.01
65836;SHT30;52595;51.608;7.216;2023-02-08T06:06:07;-4.54;99.35
65836;SHT30;52595;51.608;7.216;2023-02-08T06:08:35;-4.51;99.60
65836;SHT30;52595;51.608;7.216;2023-02-08T06:11:00;-4.51;99.41
65836;SHT30;52595;51.608;7.216;2023-02-08T06:13:26;-4.43;99.90
65836;SHT30;52595;51.608;7.216;2023-02-08T06:15:53;-4.47;99.44
65836;SHT30;52595;51.608;7.216;2023-02-08T06:18:19;-4.46;99.75
65836;SHT30;52595;51.608;7.216;2023-02-08T06:20:44;-4.46;99.76
65836;SHT30;52595;51.608;7.216;2023-02-08T06:23:09;-4.48;99.66
65836;SHT30;52595;51.608;7.216;2023-02-08T06:25:35;-4.47;99.48
65836;SHT30;52595;51.608;7.216;2023-02-08T06:28:00;-4.40;99.54
65836;SHT30;52595;51.608;7.216;2023-02-08T06:30:27;-4.43;99.61
65836;SHT30;52595;51.608;7.216;2023-02-08T06:32:52;-4.41;99.66
65836;SHT30;52595;51.608;7.216;2023-02-08T06:35:18;-4.41;99.63
65836;SHT30;52595;51.608;7.216;2023-02-08T06:37:43;-4.51;99.50
65836;SHT30;52595;51.608;7.216;2023-02-08T06:40:09;-4.53;99.61
65836;SHT30;52595;51.608;7.216;2023-02-08T06:42:34;-4.51;99.83
65836;SHT30;52595;51.608;7.216;2023-02-08T06:45:00;-4.58;99.48
65836;SHT30;52595;51.608;7.216;2023-02-08T06:47:26;-4.61;99.34
65836;SHT30;52595;51.608;7.216;2023-02-08T06:49:51;-4.60;99.39
65836;SHT30;52595;51.608;7.216;2023-02-08T06:52:17;-4.61;99.27
65836;SHT30;52595;51.608;7.216;2023-02-08T06:54:43;-4.61;99.37
65836;SHT30;52595;51.608;7.216;2023-02-08T06:57:09;-4.61;99.62
65836;SHT30;52595;51.608;7.216;2023-02-08T06:59:37;-4.57;99.67
65836;SHT30;52595;51.608;7.216;2023-02-08T07:02:02;-4.54;99.42
65836;SHT30;52595;51.608;7.216;2023-02-08T07:04:29;-4.53;99.55
65836;SHT30;52595;51.608;7.216;2023-02-08T07:06:54;-4.47;99.73
65836;SHT30;52595;51.608;7.216;2023-02-08T07:09:20;-4.40;99.69
65836;SHT30;52595;51.608;7.216;2023-02-08T07:11:45;-4.38;99.71
65836;SHT30;52595;51.608;7.216;2023-02-08T07:14:12;-4.34;99.64
65836;SHT30;52595;51.608;7.216;2023-02-08T07:16:38;-4.33;99.70
65836;SHT30;52595;51.608;7.216;2023-02-08T07:19:03;-4.28;99.45
65836;SHT30;52595;51.608;7.216;2023-02-08T07:21:29;-4.26;99.39
65836;SHT30;52595;51.608;7.216;2023-02-08T07:23:54;-4.24;99.48
65836;SHT30;52595;51.608;7.216;2023-02-08T07:26:20;-4.24;99.39
65836;SHT30;52595;51.608;7.216;2023-02-08T07:28:45;-4.24;99.48
65836;SHT30;52595;51.608;7.216;2023-02-08T07:31:13;-4.16;99.84
65836;SHT30;52595;51.608;7.216;2023-02-08T07:33:39;-4.06;99.97
65836;SHT30;52595;51.608;7.216;2023-02-08T07:36:05;-3.89;99.58
65836;SHT30;52595;51.608;7.216;2023-02-08T07:38:32;-3.79;99.40
65836;SHT30;52595;51.608;7.216;2023-02-08T07:41:09;-3.72;99.20
65836;SHT30;52595;51.608;7.216;2023-02-08T07:43:36;-3.78;98.81
65836;SHT30;52595;51.608;7.216;2023-02-08T07:46:11;-3.68;98.97
65836;SHT30;52595;51.608;7.216;2023-02-08T07:48:37;-3.61;98.85
65836;SHT30;52595;51.608;7.216;2023-02-08T07:51:03;-3.54;98.79
65836;SHT30;52595;51.608;7.216;2023-02-08T07:53:29;-3.52;98.42
65836;SHT30;52595;51.608;7.216;2023-02-08T07:55:55;-3.47;98.58
65836;SHT30;52595;51.608;7.216;2023-02-08T07:58:21;-3.37;98.13
65836;SHT30;52595;51.608;7.216;2023-02-08T08:00:46;-3.34;97.86
65836;SHT30;52595;51.608;7.216;2023-02-08T08:03:11;-3.31;97.96
65836;SHT30;52595;51.608;7.216;2023-02-08T08:05:39;-3.27;97.57
65836;SHT30;52595;51.608;7.216;2023-02-08T08:08:05;-3.15;97.70
65836;SHT30;52595;51.608;7.216;2023-02-08T08:10:31;-3.09;97.29
65836;SHT30;52595;51.608;7.216;2023-02-08T08:12:56;-3.00;96.99
65836;SHT30;52595;51.608;7.216;2023-02-08T08:15:22;-2.98;96.71
65836;SHT30;52595;51.608;7.216;2023-02-08T08:17:47;-2.93;96.49
65836;SHT30;52595;51.608;7.216;2023-02-08T08:20:13;-2.88;96.35
65836;SHT30;52595;51.608;7.216;2023-02-08T08:22:38;-2.81;96.38
65836;SHT30;52595;51.608;7.216;2023-02-08T08:25:04;-2.81;96.11
65836;SHT30;52595;51.608;7.216;2023-02-08T08:27:29;-2.76;95.82
65836;SHT30;52595;51.608;7.216;2023-02-08T08:29:54;-2.73;95.88
65836;SHT30;52595;51.608;7.216;2023-02-08T08:32:20;-2.57;95.40
65836;SHT30;52595;51.608;7.216;2023-02-08T08:34:45;-2.48;95.09
65836;SHT30;52595;51.608;7.216;2023-02-08T08:37:11;-2.46;94.73
65836;SHT30;52595;51.608;7.216;2023-02-08T08:39:36;-2.39;94.60
65836;SHT30;52595;51.608;7.216;2023-02-08T08:42:02;-2.32;94.83
65836;SHT30;52595;51.608;7.216;2023-02-08T08:44:30;-2.23;94.49
65836;SHT30;52595;51.608;7.216;2023-02-08T08:46:56;-2.22;94.11
65836;SHT30;52595;51.608;7.216;2023-02-08T08:49:23;-2.05;94.41
65836;SHT30;52595;51.608;7.216;2023-02-08T08:51:50;-1.98;94.19
65836;SHT30;52595;51.608;7.216;2023-02-08T08:54:15;-1.84;93.19
65836;SHT30;52595;51.608;7.216;2023-02-08T08:56:41;-1.79;93.38
65836;SHT30;52595;51.608;7.216;2023-02-08T08:59:06;-1.71;92.73
65836;SHT30;52595;51.608;7.216;2023-02-08T09:01:32;-1.64;92.20
65836;SHT30;52595;51.608;7.216;2023-02-08T09:03:57;-1.58;92.19
65836;SHT30;52595;51.608;7.216;2023-02-08T09:06:22;-1.51;91.74
65836;SHT30;52595;51.608;7.216;2023-02-08T09:08:48;-1.43;91.39
65836;SHT30;52595;51.608;7.216;2023-02-08T09:11:14;-1.33;90.68
65836;SHT30;52595;51.608;7.216;2023-02-08T09:13:40;-1.16;88.91
65836;SHT30;52595;51.608;7.216;2023-02-08T09:16:12;-1.10;88.57
65836;SHT30;52595;51.608;7.216;2023-02-08T09:18:38;-0.97;88.71
65836;SHT30;52595;51.608;7.216;2023-02-08T09:21:09;-0.92;88.57
65836;SHT30;52595;51.608;7.216;2023-02-08T09:23:36;-0.75;87.35
65836;SHT30;52595;51.608;7.216;2023-02-08T09:26:05;-0.66;88.08
65836;SHT30;52595;51.608;7.216;2023-02-08T09:28:32;-0.62;87.66
65836;SHT30;52595;51.608;7.216;2023-02-08T09:30:58;-0.55;87.05
65836;SHT30;52595;51.608;7.216;2023-02-08T09:33:26;-0.45;86.89
65836;SHT30;52595;51.608;7.216;2023-02-08T09:35:51;-0.41;87.20
65836;SHT30;52595;51.608;7.216;2023-02-08T09:38:17;-0.27;86.39
65836;SHT30;52595;51.608;7.216;2023-02-08T09:46:40;0.21;82.70
65836;SHT30;52595;51.608;7.216;2023-02-08T09:49:16;0.33;83.41
65836;SHT30;52595;51.608;7.216;2023-02-08T09:51:56;0.44;81.88
65836;SHT30;52595;51.608;7.216;2023-02-08T09:54:33;0.61;80.40
65836;SHT30;52595;51.608;7.216;2023-02-08T09:57:03;0.75;78.49
65836;SHT30;52595;51.608;7.216;2023-02-08T09:59:32;0.88;78.73
65836;SHT30;52595;51.608;7.216;2023-02-08T10:02:04;0.88;78.71
65836;SHT30;52595;51.608;7.216;2023-02-08T10:04:53;1.01;78.95
65836;SHT30;52595;51.608;7.216;2023-02-08T10:07:19;1.22;77.42
65836;SHT30;52595;51.608;7.216;2023-02-08T10:09:45;1.32;76.83
65836;SHT30;52595;51.608;7.216;2023-02-08T10:12:26;1.39;75.98
65836;SHT30;52595;51.608;7.216;2023-02-08T10:15:09;1.63;75.13
65836;SHT30;52595;51.608;7.216;2023-02-08T10:17:48;1.77;74.32
65836;SHT30;52595;51.608;7.216;2023-02-08T10:26:01;2.14;72.92
65836;SHT30;52595;51.608;7.216;2023-02-08T10:33:31;2.18;76.44
65836;SHT30;52595;51.608;7.216;2023-02-08T10:36:02;2.25;76.87
65836;SHT30;52595;51.608;7.216;2023-02-08T10:38:30;2.35;75.36
65836;SHT30;52595;51.608;7.216;2023-02-08T10:40:59;2.59;69.47
65836;SHT30;52595;51.608;7.216;2023-02-08T10:49:16;3.41;62.73
65836;SHT30;52595;51.608;7.216;2023-02-08T10:51:18;3.56;63.95
65836;SHT30;52595;51.608;7.216;2023-02-08T10:53:44;3.77;63.65
65836;SHT30;52595;51.608;7.216;2023-02-08T10:58:51;4.08;60.03
65836;SHT30;52595;51.608;7.216;2023-02-08T11:01:16;4.32;59.99
65836;SHT30;52595;51.608;7.216;2023-02-08T11:04:05;4.49;61.18
65836;SHT30;52595;51.608;7.216;2023-02-08T11:06:31;4.84;63.74
65836;SHT30;52595;51.608;7.216;2023-02-08T11:08:57;5.88;59.94
65836;SHT30;52595;51.608;7.216;2023-02-08T11:11:24;6.95;54.87
65836;SHT30;52595;51.608;7.216;2023-02-08T11:14:08;7.98;49.21
65836;SHT30;52595;51.608;7.216;2023-02-08T11:16:34;8.96;50.02
65836;SHT30;52595;51.608;7.216;2023-02-08T11:19:01;9.56;47.11
65836;SHT30;52595;51.608;7.216;2023-02-08T11:21:31;10.05;46.45
65836;SHT30;52595;51.608;7.216;2023-02-08T11:24:06;10.48;46.54
65836;SHT30;52595;51.608;7.216;2023-02-08T11:26:43;11.03;45.49
65836;SHT30;52595;51.608;7.216;2023-02-08T11:29:16;11.34;44.38
65836;SHT30;52595;51.608;7.216;2023-02-08T11:34:27;12.28;38.09
65836;SHT30;52595;51.608;7.216;2023-02-08T11:36:55;12.53;38.33
65836;SHT30;52595;51.608;7.216;2023-02-08T11:39:24;12.77;36.82
65836;SHT30;52595;51.608;7.216;2023-02-08T11:41:55;13.31;35.63
65836;SHT30;52595;51.608;7.216;2023-02-08T11:44:27;13.28;36.66
65836;SHT30;52595;51.608;7.216;2023-02-08T11:46:56;13.51;35.66
65836;SHT30;52595;51.608;7.216;2023-02-08T11:49:28;13.38;36.04
65836;SHT30;52595;51.608;7.216;2023-02-08T11:51:55;13.64;34.38
65836;SHT30;52595;51.608;7.216;2023-02-08T11:57:01;13.34;37.19
65836;SHT30;52595;51.608;7.216;2023-02-08T11:59:27;13.54;35.43
65836;SHT30;52595;51.608;7.216;2023-02-08T12:01:53;13.81;35.83
65836;SHT30;52595;51.608;7.216;2023-02-08T12:04:19;13.64;36.14
65836;SHT30;52595;51.608;7.216;2023-02-08T12:07:00;14.25;35.73
65836;SHT30;52595;51.608;7.216;2023-02-08T12:12:50;14.19;35.25
65836;SHT30;52595;51.608;7.216;2023-02-08T12:21:24;15.41;33.26
65836;SHT30;52595;51.608;7.216;2023-02-08T12:29:40;16.29;32.31
65836;SHT30;52595;51.608;7.216;2023-02-08T12:37:40;15.90;31.82
65836;SHT30;52595;51.608;7.216;2023-02-08T12:48:44;16.89;29.94
65836;SHT30;52595;51.608;7.216;2023-02-08T12:57:37;16.63;29.17
65836;SHT30;52595;51.608;7.216;2023-02-08T13:00:06;16.53;29.13
65836;SHT30;52595;51.608;7.216;2023-02-08T13:02:43;16.87;28.96
65836;SHT30;52595;51.608;7.216;2023-02-08T13:05:18;17.34;27.04
65836;SHT30;52595;51.608;7.216;2023-02-08T13:07:45;17.49;27.57
65836;SHT30;52595;51.608;7.216;2023-02-08T13:10:29;17.85;27.11
65836;SHT30;52595;51.608;7.216;2023-02-08T13:13:11;18.87;26.67
65836;SHT30;52595;51.608;7.216;2023-02-08T13:15:46;18.48;27.09
65836;SHT30;52595;51.608;7.216;2023-02-08T13:18:26;19.30;26.28
65836;SHT30;52595;51.608;7.216;2023-02-08T13:21:07;19.53;25.01
65836;SHT30;52595;51.608;7.216;2023-02-08T13:23:37;19.05;25.84
65836;SHT30;52595;51.608;7.216;2023-02-08T13:26:32;18.88;26.64
65836;SHT30;52595;51.608;7.216;2023-02-08T13:29:00;18.24;25.99
65836;SHT30;52595;51.608;7.216;2023-02-08T13:31:39;18.14;26.64
65836;SHT30;52595;51.608;7.216;2023-02-08T13:34:18;18.38;26.52
65836;SHT30;52595;51.608;7.216;2023-02-08T13:36:50;18.13;26.39
65836;SHT30;52595;51.608;7.216;2023-02-08T13:39:43;17.90;27.19
65836;SHT30;52595;51.608;7.216;2023-02-08T13:42:40;17.12;28.42
65836;SHT30;52595;51.608;7.216;2023-02-08T13:45:10;16.92;28.19
65836;SHT30;52595;51.608;7.216;2023-02-08T13:47:47;18.04;27.68
65836;SHT30;52595;51.608;7.216;2023-02-08T13:53:04;17.96;27.33
65836;SHT30;52595;51.608;7.216;2023-02-08T13:58:34;18.24;26.84
65836;SHT30;52595;51.608;7.216;2023-02-08T14:01:11;17.10;27.38
65836;SHT30;52595;51.608;7.216;2023-02-08T14:03:38;17.89;27.79
65836;SHT30;52595;51.608;7.216;2023-02-08T14:06:19;17.83;26.28
65836;SHT30;52595;51.608;7.216;2023-02-08T14:08:56;17.27;27.44
65836;SHT30;52595;51.608;7.216;2023-02-08T14:11:45;17.50;27.79
65836;SHT30;52595;51.608;7.216;2023-02-08T14:14:43;17.94;26.97
65836;SHT30;52595;51.608;7.216;2023-02-08T14:17:27;18.16;26.31
65836;SHT30;52595;51.608;7.216;2023-02-08T14:20:01;18.34;25.99
65836;SHT30;52595;51.608;7.216;2023-02-08T14:22:35;17.80;26.68
65836;SHT30;52595;51.608;7.216;2023-02-08T14:25:26;17.69;26.78
65836;SHT30;52595;51.608;7.216;2023-02-08T14:27:58;17.49;27.36
65836;SHT30;52595;51.608;7.216;2023-02-08T14:30:45;17.72;26.35
65836;SHT30;52595;51.608;7.216;2023-02-08T14:33:19;17.93;26.54
65836;SHT30;52595;51.608;7.216;2023-02-08T14:35:55;18.13;25.41
65836;SHT30;52595;51.608;7.216;2023-02-08T14:41:00;17.24;26.24
65836;SHT30;52595;51.608;7.216;2023-02-08T14:43:27;17.55;26.56
65836;SHT30;52595;51.608;7.216;2023-02-08T14:45:54;17.49;25.48
65836;SHT30;52595;51.608;7.216;2023-02-08T14:50:59;17.01;27.45
65836;SHT30;52595;51.608;7.216;2023-02-08T14:58:51;16.71;27.12
65836;SHT30;52595;51.608;7.216;2023-02-08T15:01:23;16.37;26.24
65836;SHT30;52595;51.608;7.216;2023-02-08T15:03:55;16.75;26.02
65836;SHT30;52595;51.608;7.216;2023-02-08T15:09:22;15.63;28.07
65836;SHT30;52595;51.608;7.216;2023-02-08T15:11:58;15.83;28.46
65836;SHT30;52595;51.608;7.216;2023-02-08T15:14:25;15.68;28.56
65836;SHT30;52595;51.608;7.216;2023-02-08T15:16:50;15.78;28.37
65836;SHT30;52595;51.608;7.216;2023-02-08T15:19:30;15.18;28.75
65836;SHT30;52595;51.608;7.216;2023-02-08T15:24:52;14.81;28.88
65836;SHT30;52595;51.608;7.216;2023-02-08T15:27:26;14.73;29.60
65836;SHT30;52595;51.608;7.216;2023-02-08T15:29:52;14.79;30.01
65836;SHT30;52595;51.608;7.216;2023-02-08T15:32:20;14.06;30.31
65836;SHT30;52595;51.608;7.216;2023-02-08T15:34:53;13.95;31.50
65836;SHT30;52595;51.608;7.216;2023-02-08T15:37:19;13.48;32.20
65836;SHT30;52595;51.608;7.216;2023-02-08T15:39:48;13.34;32.96
65836;SHT30;52595;51.608;7.216;2023-02-08T15:42:20;13.34;32.79
65836;SHT30;52595;51.608;7.216;2023-02-08T15:44:46;13.15;32.99
65836;SHT30;52595;51.608;7.216;2023-02-08T15:47:35;12.39;34.27
65836;SHT30;52595;51.608;7.216;2023-02-08T15:50:04;12.28;34.20
65836;SHT30;52595;51.608;7.216;2023-02-08T15:52:34;11.67;35.72
65836;SHT30;52595;51.608;7.216;2023-02-08T15:55:00;12.15;36.23
65836;SHT30;52595;51.608;7.216;2023-02-08T16:00:15;11.98;36.79
65836;SHT30;52595;51.608;7.216;2023-02-08T16:02:42;11.71;37.09
65836;SHT30;52595;51.608;7.216;2023-02-08T16:05:19;11.51;37.64
65836;SHT30;52595;51.608;7.216;2023-02-08T16:07:46;11.14;38.58
65836;SHT30;52595;51.608;7.216;2023-02-08T16:10:23;10.73;39.93
65836;SHT30;52595;51.608;7.216;2023-02-08T16:12:55;10.14;40.14
65836;SHT30;52595;51.608;7.216;2023-02-08T16:15:45;9.86;41.20
65836;SHT30;52595;51.608;7.216;2023-02-08T16:18:34;9.08;42.09
65836;SHT30;52595;51.608;7.216;2023-02-08T16:21:04;8.57;43.66
65836;SHT30;52595;51.608;7.216;2023-02-08T16:23:33;7.86;43.55
65836;SHT30;52595;51.608;7.216;2023-02-08T16:26:30;7.04;45.40
65836;SHT30;52595;51.608;7.216;2023-02-08T16:29:03;6.44;46.23
65836;SHT30;52595;51.608;7.216;2023-02-08T16:31:30;6.05;46.93
65836;SHT30;52595;51.608;7.216;2023-02-08T16:34:06;5.63;49.20
65836;SHT30;52595;51.608;7.216;2023-02-08T16:36:40;5.24;51.13
65836;SHT30;52595;51.608;7.216;2023-02-08T16:46:48;4.54;52.67
65836;SHT30;52595;51.608;7.216;2023-02-08T16:49:14;4.50;53.37
65836;SHT30;52595;51.608;7.216;2023-02-08T16:51:39;4.31;54.29
65836;SHT30;52595;51.608;7.216;2023-02-08T16:54:13;4.06;54.33
65836;SHT30;52595;51.608;7.216;2023-02-08T16:56:40;3.85;55.83
65836;SHT30;52595;51.608;7.216;2023-02-08T16:59:07;3.67;56.85
65836;SHT30;52595;51.608;7.216;2023-02-08T17:01:33;3.58;57.12
65836;SHT30;52595;51.608;7.216;2023-02-08T17:03:59;3.41;58.58
65836;SHT30;52595;51.608;7.216;2023-02-08T17:06:30;3.24;59.01
65836;SHT30;52595;51.608;7.216;2023-02-08T17:08:56;3.09;59.58
65836;SHT30;52595;51.608;7.216;2023-02-08T17:11:22;2.96;59.50
65836;SHT30;52595;51.608;7.216;2023-02-08T17:13:47;2.86;59.41
65836;SHT30;52595;51.608;7.216;2023-02-08T17:16:16;2.75;58.69
65836;SHT30;52595;51.608;7.216;2023-02-08T17:18:43;2.69;58.41
65836;SHT30;52595;51.608;7.216;2023-02-08T17:21:09;2.69;57.85
65836;SHT30;52595;51.608;7.216;2023-02-08T17:23:34;2.63;57.94
65836;SHT30;52595;51.608;7.216;2023-02-08T17:26:00;2.51;58.25
65836;SHT30;52595;51.608;7.216;2023-02-08T17:28:25;2.37;58.29
65836;SHT30;52595;51.608;7.216;2023-02-08T17:30:51;2.31;58.58
65836;SHT30;52595;51.608;7.216;2023-02-08T17:33:17;2.21;58.52
65836;SHT30;52595;51.608;7.216;2023-02-08T17:35:49;2.10;59.41
65836;SHT30;52595;51.608;7.216;2023-02-08T17:38:15;2.15;59.06
65836;SHT30;52595;51.608;7.216;2023-02-08T17:40:42;1.97;59.72
65836;SHT30;52595;51.608;7.216;2023-02-08T17:43:09;1.93;59.14
65836;SHT30;52595;51.608;7.216;2023-02-08T17:45:37;1.87;59.62
65836;SHT30;52595;51.608;7.216;2023-02-08T17:48:03;2.00;58.93
65836;SHT30;52595;51.608;7.216;2023-02-08T17:50:29;1.93;59.57
65836;SHT30;52595;51.608;7.216;2023-02-08T17:52:54;1.86;59.25
65836;SHT30;52595;51.608;7.216;2023-02-08T17:55:20;1.77;59.26
65836;SHT30;52595;51.608;7.216;2023-02-08T17:57:45;1.67;60.76
65836;SHT30;52595;51.608;7.216;2023-02-08T18:02:46;1.54;60.98
65836;SHT30;52595;51.608;7.216;2023-02-08T18:05:13;1.38;60.76
65836;SHT30;52595;51.608;7.216;2023-02-08T18:07:39;1.33;59.62
65836;SHT30;52595;51.608;7.216;2023-02-08T18:10:06;1.19;61.64
65836;SHT30;52595;51.608;7.216;2023-02-08T18:12:34;1.13;61.77